Spirit Of Vi — CFL2070 — position and weather

sailwx.info

Track history (hours):
 
Tides and Currents Weather Stations Pressure Air Temp Water Temp Dewpoint Dewpoint Depression Visibility Wind Speed Wind Dir Waves Ship Positions

Spirit Of Vi

Last reported at 2020-Oct-30 13:30 UTC. Time now 2020-Oct-30 17:21 UTC.
Position N 48°41' W 123°25'.

Length 167 m; draft 4.8 m.

Type: Passenger vessel. MMSI: 316001269.

Date/timePositionNaut miles runAvg speedWind from/ knotsBaromVisibWave heightAir tempDewpointWater temp
2020-Oct-30 13:30N 48°41' W 123°25'0 0.0
2020-Oct-30 13:00N 48°41' W 123°25'0 0.0
2020-Oct-30 12:00N 48°41' W 123°25'0 0.0
2020-Oct-30 10:30N 48°41' W 123°25'0 0.0
2020-Oct-30 09:30N 48°41' W 123°25'0 0.0
2020-Oct-30 08:30N 48°41' W 123°25'0 0.0
2020-Oct-30 07:30N 48°41' W 123°25'0 0.0
2020-Oct-30 06:30N 48°41' W 123°25'0 0.0
2020-Oct-30 06:00N 48°41' W 123°25'0 0.0
2020-Oct-30 05:31N 48°41' W 123°25'2210.9
2020-Oct-30 03:31N 49°00' W 123°08'917.3
2020-Oct-30 03:00N 48°54' W 123°16'1313.4
2020-Oct-30 02:00N 48°41' W 123°25'6 1.8
2020-Oct-29 22:31N 48°47' W 123°21'8 4.0
2020-Oct-29 20:30N 48°55' W 123°17'14 5.6
2020-Oct-29 18:00N 48°41' W 123°25'0 0.1
2020-Oct-29 17:30N 48°41' W 123°25'1514.7
2020-Oct-29 16:30N 48°55' W 123°16'1 0.5
2020-Oct-29 15:00N 48°55' W 123°15'15 2.1
2020-Oct-29 07:58N 48°41' W 123°25'0 0.0
2020-Oct-29 06:58N 48°41' W 123°25'22 7.4
2020-Oct-29 04:00N 49°00' W 123°08'0 0.2
2020-Oct-29 03:31N 49°00' W 123°08'1514.7
2020-Oct-29 02:30N 48°48' W 123°21'0 0.1
2020-Oct-29 01:00N 48°48' W 123°20'15 9.8
2020-Oct-28 23:30N 49°00' W 123°08'1514.9
2020-Oct-28 22:30N 48°48' W 123°21'0 0.2
2020-Oct-28 21:00N 48°48' W 123°21'1514.8
2020-Oct-28 20:00N 49°00' W 123°08'22 8.8
2020-Oct-28 17:30N 48°41' W 123°25'14 5.5
2020-Oct-28 15:00N 48°54' W 123°16'14 6.9
2020-Oct-28 13:00N 48°41' W 123°25'0 0.0
2020-Oct-28 11:30N 48°41' W 123°25'0 0.0
2020-Oct-28 10:57N 48°41' W 123°25'0 0.0
2020-Oct-28 10:27N 48°41' W 123°25'0 0.0
2020-Oct-28 10:00N 48°41' W 123°25'0 0.0
2020-Oct-28 08:30N 48°41' W 123°25'0 0.0
2020-Oct-28 07:30N 48°41' W 123°25'0 0.0
2020-Oct-28 06:30N 48°41' W 123°25'22 8.7
2020-Oct-28 04:01N 49°00' W 123°08'7 1.5
2020-Oct-27 23:00N 48°54' W 123°15'7 3.6
2020-Oct-27 21:01N 48°48' W 123°21'1514.7
2020-Oct-27 20:00N 49°00' W 123°08'15 4.9
2020-Oct-27 17:00N 48°48' W 123°21'7 3.6
2020-Oct-27 15:00N 48°54' W 123°15'14 5.7
2020-Oct-27 12:28N 48°41' W 123°25'0 0.0
2020-Oct-27 10:58N 48°41' W 123°25'0 0.0
2020-Oct-27 10:28N 48°41' W 123°25'0 0.0
2020-Oct-27 09:28N 48°41' W 123°25'0 0.0
2020-Oct-27 07:58N 48°41' W 123°25'0 0.0
2020-Oct-27 07:28N 48°41' W 123°25'0 0.0
2020-Oct-27 05:58N 48°41' W 123°25'22 8.9
2020-Oct-27 03:30N 49°00' W 123°08'815.2
2020-Oct-27 03:00N 48°54' W 123°15'7 2.1
2020-Oct-26 23:30N 49°00' W 123°08'15 3.0
2020-Oct-26 18:30N 48°48' W 123°20'7 1.0
2020-Oct-26 11:29N 48°41' W 123°25'0 0.0
2020-Oct-26 10:29N 48°41' W 123°25'0 0.0
2020-Oct-26 06:59N 48°41' W 123°25'0 0.0
2020-Oct-26 06:29N 48°41' W 123°25'0 0.0
2020-Oct-26 05:59N 48°41' W 123°25'0 0.0
2020-Oct-26 05:30N 48°41' W 123°25'714.4
2020-Oct-26 05:00N 48°48' W 123°21'0 0.2
2020-Oct-26 02:30N 48°48' W 123°21'8 4.1
2020-Oct-26 00:30N 48°55' W 123°15'1 0.7
2020-Oct-25 23:01N 48°54' W 123°15'0 0.1
2020-Oct-25 19:01N 48°55' W 123°15'714.7
2020-Oct-25 18:31N 48°48' W 123°20'7 7.2
2020-Oct-25 17:31N 48°41' W 123°25'1514.8
2020-Oct-25 16:30N 48°55' W 123°16'815.0
2020-Oct-25 16:01N 49°00' W 123°08'0 0.2
2020-Oct-25 15:31N 49°00' W 123°08'1514.9
2020-Oct-25 14:30N 48°48' W 123°20'7 1.7
2020-Oct-25 10:27N 48°41' W 123°25'0 0.0
2020-Oct-25 08:27N 48°41' W 123°25'0 0.0
2020-Oct-25 05:30N 48°41' W 123°25'1514.8
2020-Oct-25 04:31N 48°55' W 123°16'1 0.5
2020-Oct-25 03:00N 48°55' W 123°15'1514.7
2020-Oct-25 02:01N 48°41' W 123°25'2211.0
2020-Oct-25 00:00N 49°00' W 123°08'15 9.8
2020-Oct-24 22:30N 48°48' W 123°20'714.8
2020-Oct-24 22:00N 48°41' W 123°25'0 0.0
2020-Oct-24 18:00N 48°41' W 123°25'15 9.8
2020-Oct-24 16:30N 48°55' W 123°16'15 5.9
2020-Oct-24 14:01N 48°41' W 123°25'0 0.0
2020-Oct-24 12:00N 48°41' W 123°25'0 0.0
2020-Oct-24 11:01N 48°41' W 123°25'0 0.0
2020-Oct-24 10:01N 48°41' W 123°25'14 2.0
2020-Oct-24 03:00N 48°54' W 123°16'13 9.0
2020-Oct-24 01:30N 48°42' W 123°23'2110.4
2020-Oct-23 23:30N 48°60' W 123°08'2114.3
2020-Oct-23 22:00N 48°41' W 123°25'15 2.8
2020-Oct-23 16:30N 48°56' W 123°15'15 2.6
2020-Oct-23 10:30N 48°41' W 123°25'0 0.0
2020-Oct-23 08:30N 48°41' W 123°25'0 0.0
2020-Oct-23 07:30N 48°41' W 123°25'0 0.0
2020-Oct-23 07:00N 48°41' W 123°25'0 0.0
2020-Oct-23 06:31N 48°41' W 123°25'22 8.7
2020-Oct-23 04:00N 49°00' W 123°08'7 2.0
2020-Oct-23 00:30N 48°55' W 123°15'9 4.5
2020-Oct-22 22:30N 48°47' W 123°21'1 0.2
2020-Oct-22 18:31N 48°48' W 123°21'713.8
2020-Oct-22 18:00N 48°41' W 123°25'15 4.9
2020-Oct-22 15:00N 48°55' W 123°15'815.1
2020-Oct-22 14:30N 48°48' W 123°21'714.2
2020-Oct-22 14:00N 48°41' W 123°25'0 0.0
2020-Oct-22 11:00N 48°41' W 123°25'0 0.0
2020-Oct-22 10:27N 48°41' W 123°25'0 0.0
2020-Oct-22 08:00N 48°41' W 123°25'0 0.0
2020-Oct-22 07:30N 48°41' W 123°25'0 0.0
2020-Oct-22 06:30N 48°41' W 123°25'6 3.8
2020-Oct-22 05:00N 48°46' W 123°21'1610.9
2020-Oct-22 03:31N 49°00' W 123°08'0 0.0
2020-Oct-22 00:00N 49°00' W 123°08'0 0.0
2020-Oct-21 23:30N 49°00' W 123°08'0 0.0
2020-Oct-21 20:00N 49°00' W 123°08'8 8.2
2020-Oct-21 19:00N 48°54' W 123°16'14 9.2
2020-Oct-21 17:30N 48°41' W 123°25'7 2.5
2020-Oct-21 14:30N 48°48' W 123°20'7 5.0
2020-Oct-21 13:00N 48°41' W 123°25'0 0.0
2020-Oct-21 09:29N 48°41' W 123°25'0 0.0
2020-Oct-21 08:59N 48°41' W 123°25'0 0.0
2020-Oct-21 08:29N 48°41' W 123°25'0 0.0
2020-Oct-21 07:29N 48°41' W 123°25'0 0.0
2020-Oct-21 06:29N 48°41' W 123°25'0 0.0
2020-Oct-21 06:00N 48°41' W 123°25'14 9.4
2020-Oct-21 04:30N 48°54' W 123°17'816.7
2020-Oct-21 04:00N 49°00' W 123°08'0 0.2
2020-Oct-21 03:30N 49°00' W 123°08'1514.8
2020-Oct-21 02:30N 48°48' W 123°20'7 3.6
2020-Oct-21 00:30N 48°55' W 123°17'8 1.6
2020-Oct-20 19:30N 49°00' W 123°08'0 0.0
2020-Oct-20 16:00N 49°00' W 123°08'  
Track history (hours):
 
Tides and Currents Weather Stations Pressure Air Temp Water Temp Dewpoint Dewpoint Depression Visibility Wind Speed Wind Dir Waves Ship Positions

Spirit Of Vi

Last reported at 2020-Oct-30 13:30 UTC. Time now 2020-Oct-30 17:21 UTC.
Position N 48°41' W 123°25'.

Length 167 m; draft 4.8 m.

Type: Passenger vessel. MMSI: 316001269.

Date/timePositionNaut miles runAvg speedWind from/ knotsBaromVisibWave heightAir tempDewpointWater temp
2020-Oct-30 13:30N 48°41' W 123°25'0 0.0
2020-Oct-30 13:00N 48°41' W 123°25'0 0.0
2020-Oct-30 12:00N 48°41' W 123°25'0 0.0
2020-Oct-30 10:30N 48°41' W 123°25'0 0.0
2020-Oct-30 09:30N 48°41' W 123°25'0 0.0
2020-Oct-30 08:30N 48°41' W 123°25'0 0.0
2020-Oct-30 07:30N 48°41' W 123°25'0 0.0
2020-Oct-30 06:30N 48°41' W 123°25'0 0.0
2020-Oct-30 06:00N 48°41' W 123°25'0 0.0
2020-Oct-30 05:31N 48°41' W 123°25'2210.9
2020-Oct-30 03:31N 49°00' W 123°08'917.3
2020-Oct-30 03:00N 48°54' W 123°16'1313.4
2020-Oct-30 02:00N 48°41' W 123°25'6 1.8
2020-Oct-29 22:31N 48°47' W 123°21'8 4.0
2020-Oct-29 20:30N 48°55' W 123°17'14 5.6
2020-Oct-29 18:00N 48°41' W 123°25'0 0.1
2020-Oct-29 17:30N 48°41' W 123°25'1514.7
2020-Oct-29 16:30N 48°55' W 123°16'1 0.5
2020-Oct-29 15:00N 48°55' W 123°15'15 2.1
2020-Oct-29 07:58N 48°41' W 123°25'0 0.0
2020-Oct-29 06:58N 48°41' W 123°25'22 7.4
2020-Oct-29 04:00N 49°00' W 123°08'0 0.2
2020-Oct-29 03:31N 49°00' W 123°08'1514.7
2020-Oct-29 02:30N 48°48' W 123°21'0 0.1
2020-Oct-29 01:00N 48°48' W 123°20'15 9.8
2020-Oct-28 23:30N 49°00' W 123°08'1514.9
2020-Oct-28 22:30N 48°48' W 123°21'0 0.2
2020-Oct-28 21:00N 48°48' W 123°21'1514.8
2020-Oct-28 20:00N 49°00' W 123°08'22 8.8
2020-Oct-28 17:30N 48°41' W 123°25'14 5.5
2020-Oct-28 15:00N 48°54' W 123°16'14 6.9
2020-Oct-28 13:00N 48°41' W 123°25'0 0.0
2020-Oct-28 11:30N 48°41' W 123°25'0 0.0
2020-Oct-28 10:57N 48°41' W 123°25'0 0.0
2020-Oct-28 10:27N 48°41' W 123°25'0 0.0
2020-Oct-28 10:00N 48°41' W 123°25'0 0.0
2020-Oct-28 08:30N 48°41' W 123°25'0 0.0
2020-Oct-28 07:30N 48°41' W 123°25'0 0.0
2020-Oct-28 06:30N 48°41' W 123°25'22 8.7
2020-Oct-28 04:01N 49°00' W 123°08'7 1.5
2020-Oct-27 23:00N 48°54' W 123°15'7 3.6
2020-Oct-27 21:01N 48°48' W 123°21'1514.7
2020-Oct-27 20:00N 49°00' W 123°08'15 4.9
2020-Oct-27 17:00N 48°48' W 123°21'7 3.6
2020-Oct-27 15:00N 48°54' W 123°15'14 5.7
2020-Oct-27 12:28N 48°41' W 123°25'0 0.0
2020-Oct-27 10:58N 48°41' W 123°25'0 0.0
2020-Oct-27 10:28N 48°41' W 123°25'0 0.0
2020-Oct-27 09:28N 48°41' W 123°25'0 0.0
2020-Oct-27 07:58N 48°41' W 123°25'0 0.0
2020-Oct-27 07:28N 48°41' W 123°25'0 0.0
2020-Oct-27 05:58N 48°41' W 123°25'22 8.9
2020-Oct-27 03:30N 49°00' W 123°08'815.2
2020-Oct-27 03:00N 48°54' W 123°15'7 2.1
2020-Oct-26 23:30N 49°00' W 123°08'15 3.0
2020-Oct-26 18:30N 48°48' W 123°20'7 1.0
2020-Oct-26 11:29N 48°41' W 123°25'0 0.0
2020-Oct-26 10:29N 48°41' W 123°25'0 0.0
2020-Oct-26 06:59N 48°41' W 123°25'0 0.0
2020-Oct-26 06:29N 48°41' W 123°25'0 0.0
2020-Oct-26 05:59N 48°41' W 123°25'0 0.0
2020-Oct-26 05:30N 48°41' W 123°25'714.4
2020-Oct-26 05:00N 48°48' W 123°21'0 0.2
2020-Oct-26 02:30N 48°48' W 123°21'8 4.1
2020-Oct-26 00:30N 48°55' W 123°15'1 0.7
2020-Oct-25 23:01N 48°54' W 123°15'0 0.1
2020-Oct-25 19:01N 48°55' W 123°15'714.7
2020-Oct-25 18:31N 48°48' W 123°20'7 7.2
2020-Oct-25 17:31N 48°41' W 123°25'1514.8
2020-Oct-25 16:30N 48°55' W 123°16'815.0
2020-Oct-25 16:01N 49°00' W 123°08'0 0.2
2020-Oct-25 15:31N 49°00' W 123°08'1514.9
2020-Oct-25 14:30N 48°48' W 123°20'7 1.7
2020-Oct-25 10:27N 48°41' W 123°25'0 0.0
2020-Oct-25 08:27N 48°41' W 123°25'0 0.0
2020-Oct-25 05:30N 48°41' W 123°25'1514.8
2020-Oct-25 04:31N 48°55' W 123°16'1 0.5
2020-Oct-25 03:00N 48°55' W 123°15'1514.7
2020-Oct-25 02:01N 48°41' W 123°25'2211.0
2020-Oct-25 00:00N 49°00' W 123°08'15 9.8
2020-Oct-24 22:30N 48°48' W 123°20'714.8
2020-Oct-24 22:00N 48°41' W 123°25'0 0.0
2020-Oct-24 18:00N 48°41' W 123°25'15 9.8
2020-Oct-24 16:30N 48°55' W 123°16'15 5.9
2020-Oct-24 14:01N 48°41' W 123°25'0 0.0
2020-Oct-24 12:00N 48°41' W 123°25'0 0.0
2020-Oct-24 11:01N 48°41' W 123°25'0 0.0
2020-Oct-24 10:01N 48°41' W 123°25'14 2.0
2020-Oct-24 03:00N 48°54' W 123°16'13 9.0
2020-Oct-24 01:30N 48°42' W 123°23'2110.4
2020-Oct-23 23:30N 48°60' W 123°08'2114.3
2020-Oct-23 22:00N 48°41' W 123°25'15 2.8
2020-Oct-23 16:30N 48°56' W 123°15'15 2.6
2020-Oct-23 10:30N 48°41' W 123°25'0 0.0
2020-Oct-23 08:30N 48°41' W 123°25'0 0.0
2020-Oct-23 07:30N 48°41' W 123°25'0 0.0
2020-Oct-23 07:00N 48°41' W 123°25'0 0.0
2020-Oct-23 06:31N 48°41' W 123°25'22 8.7
2020-Oct-23 04:00N 49°00' W 123°08'7 2.0
2020-Oct-23 00:30N 48°55' W 123°15'9 4.5
2020-Oct-22 22:30N 48°47' W 123°21'1 0.2
2020-Oct-22 18:31N 48°48' W 123°21'713.8
2020-Oct-22 18:00N 48°41' W 123°25'15 4.9
2020-Oct-22 15:00N 48°55' W 123°15'815.1
2020-Oct-22 14:30N 48°48' W 123°21'714.2
2020-Oct-22 14:00N 48°41' W 123°25'0 0.0
2020-Oct-22 11:00N 48°41' W 123°25'0 0.0
2020-Oct-22 10:27N 48°41' W 123°25'0 0.0
2020-Oct-22 08:00N 48°41' W 123°25'0 0.0
2020-Oct-22 07:30N 48°41' W 123°25'0 0.0
2020-Oct-22 06:30N 48°41' W 123°25'6 3.8
2020-Oct-22 05:00N 48°46' W 123°21'1610.9
2020-Oct-22 03:31N 49°00' W 123°08'0 0.0
2020-Oct-22 00:00N 49°00' W 123°08'0 0.0
2020-Oct-21 23:30N 49°00' W 123°08'0 0.0
2020-Oct-21 20:00N 49°00' W 123°08'8 8.2
2020-Oct-21 19:00N 48°54' W 123°16'14 9.2
2020-Oct-21 17:30N 48°41' W 123°25'7 2.5
2020-Oct-21 14:30N 48°48' W 123°20'7 5.0
2020-Oct-21 13:00N 48°41' W 123°25'0 0.0
2020-Oct-21 09:29N 48°41' W 123°25'0 0.0
2020-Oct-21 08:59N 48°41' W 123°25'0 0.0
2020-Oct-21 08:29N 48°41' W 123°25'0 0.0
2020-Oct-21 07:29N 48°41' W 123°25'0 0.0
2020-Oct-21 06:29N 48°41' W 123°25'0 0.0
2020-Oct-21 06:00N 48°41' W 123°25'14 9.4
2020-Oct-21 04:30N 48°54' W 123°17'816.7
2020-Oct-21 04:00N 49°00' W 123°08'0 0.2
2020-Oct-21 03:30N 49°00' W 123°08'1514.8
2020-Oct-21 02:30N 48°48' W 123°20'7 3.6
2020-Oct-21 00:30N 48°55' W 123°17'8 1.6
2020-Oct-20 19:30N 49°00' W 123°08'0 0.0
2020-Oct-20 16:00N 49°00' W 123°08'  

Dump ship's entire track history